createdAt,value
2022-08-23T00:00:13.952Z,81.32
2022-08-23T00:01:13.942Z,81.42
2022-08-23T00:02:23.878Z,81.42
2022-08-23T00:03:14.998Z,80.92
2022-08-23T00:04:13.919Z,81.23
2022-08-23T00:05:13.919Z,81.02
2022-08-23T00:06:13.890Z,80.62
2022-08-23T00:07:13.904Z,81.42
2022-08-23T00:08:13.879Z,81.42
2022-08-23T00:09:13.879Z,81.76
2022-08-23T00:10:14.047Z,81.67
2022-08-23T00:11:13.836Z,81.42
2022-08-23T00:12:13.812Z,81.26
2022-08-23T00:13:13.814Z,81.56
2022-08-23T00:14:13.795Z,80.76
2022-08-23T00:15:13.818Z,81.36
2022-08-23T00:16:13.781Z,81.36
2022-08-23T00:17:33.278Z,81.46
2022-08-23T00:18:14.765Z,81.36
2022-08-23T00:19:13.756Z,80.86
2022-08-23T00:20:13.729Z,81.46
2022-08-23T00:21:13.747Z,81.46
2022-08-23T00:22:13.720Z,81.87
2022-08-23T00:23:13.730Z,82.10
2022-08-23T00:24:13.690Z,81.60
2022-08-23T00:25:14.422Z,81.36
2022-08-23T00:26:14.417Z,81.87
2022-08-23T00:27:13.965Z,82.17
2022-08-23T00:28:14.834Z,82.51
2022-08-23T00:29:13.639Z,82.20
2022-08-23T00:30:16.422Z,82.00
2022-08-23T00:31:13.616Z,81.90
2022-08-23T00:32:13.605Z,81.80
2022-08-23T00:33:13.984Z,82.00
2022-08-23T00:34:13.589Z,82.06
2022-08-23T00:35:26.292Z,81.30
2022-08-23T00:36:14.567Z,82.40
2022-08-23T00:37:13.556Z,82.10
2022-08-23T00:38:32.402Z,82.81
2022-08-23T00:39:15.454Z,82.51
2022-08-23T00:40:13.618Z,82.10
2022-08-23T00:41:13.512Z,83.31
2022-08-23T00:42:13.498Z,83.11
2022-08-23T00:43:14.424Z,82.40
2022-08-23T00:44:13.466Z,83.31
2022-08-23T00:45:13.470Z,83.41
2022-08-23T00:46:14.436Z,83.01
2022-08-23T00:47:13.438Z,82.81
2022-08-23T00:48:13.416Z,82.81
2022-08-23T00:49:13.403Z,83.21
2022-08-23T00:50:23.864Z,83.21
2022-08-23T00:51:14.457Z,83.45
2022-08-23T00:52:13.389Z,82.70
2022-08-23T00:53:13.928Z,82.45
2022-08-23T00:54:13.355Z,83.25
2022-08-23T00:55:13.360Z,83.04
2022-08-23T00:56:13.340Z,83.15
2022-08-23T00:57:13.927Z,83.04
2022-08-23T00:58:13.313Z,83.25
2022-08-23T00:59:13.931Z,84.35
2022-08-23T01:00:13.313Z,84.25
2022-08-23T01:01:13.927Z,84.05
2022-08-23T01:02:13.364Z,84.35
2022-08-23T01:03:13.253Z,84.35
2022-08-23T01:04:13.267Z,84.09
2022-08-23T01:05:13.937Z,84.85
2022-08-23T01:06:13.926Z,84.80
2022-08-23T01:07:13.215Z,83.89
2022-08-23T01:08:13.197Z,84.35
2022-08-23T01:09:13.190Z,84.39
2022-08-23T01:10:20.099Z,84.39
2022-08-23T01:11:14.178Z,84.39
2022-08-23T01:12:13.939Z,84.09
2022-08-23T01:13:13.169Z,84.89
2022-08-23T01:14:13.927Z,84.49
2022-08-23T01:15:13.131Z,84.69
2022-08-23T01:16:13.139Z,84.49
2022-08-23T01:17:13.941Z,84.69
2022-08-23T01:18:13.089Z,84.53
2022-08-23T01:19:19.928Z,84.69
2022-08-23T01:20:13.078Z,84.49
2022-08-23T01:21:13.067Z,84.43
2022-08-23T01:22:13.066Z,84.94
2022-08-23T01:23:13.047Z,84.63
2022-08-23T01:24:19.267Z,84.53
2022-08-23T01:25:14.934Z,84.94
2022-08-23T01:26:13.010Z,85.14
2022-08-23T01:27:13.954Z,85.14
2022-08-23T01:28:13.004Z,84.33
2022-08-23T01:29:12.983Z,84.63
2022-08-23T01:30:12.971Z,84.74
2022-08-23T01:31:13.944Z,83.83
2022-08-23T01:32:19.933Z,84.43
2022-08-23T01:33:12.939Z,84.63
2022-08-23T01:34:12.935Z,84.63
2022-08-23T01:35:12.966Z,84.23
2022-08-23T01:36:12.925Z,84.43
2022-08-23T01:37:12.896Z,83.73
2022-08-23T01:38:12.904Z,84.74
2022-08-23T01:39:12.870Z,84.23
2022-08-23T01:40:19.502Z,84.83
2022-08-23T01:41:12.868Z,83.83
2022-08-23T01:42:12.850Z,84.23
2022-08-23T01:43:13.428Z,84.17
2022-08-23T01:44:12.827Z,84.57
2022-08-23T01:45:13.445Z,84.88
2022-08-23T01:46:12.809Z,84.07
2022-08-23T01:47:12.796Z,84.88
2022-08-23T01:48:12.774Z,84.83
2022-08-23T01:49:12.772Z,84.77
2022-08-23T01:50:12.751Z,84.77
2022-08-23T01:51:12.770Z,84.57
2022-08-23T01:52:13.438Z,84.88
2022-08-23T01:53:12.726Z,83.47
2022-08-23T01:54:19.438Z,84.97
2022-08-23T01:55:12.712Z,84.27
2022-08-23T01:56:12.690Z,83.97
2022-08-23T01:57:12.970Z,84.67
2022-08-23T01:58:12.687Z,84.17
2022-08-23T01:59:12.668Z,83.97
2022-08-23T02:00:12.653Z,84.07
2022-08-23T02:01:12.688Z,84.77
2022-08-23T02:02:12.629Z,84.77
2022-08-23T02:03:19.449Z,83.76
2022-08-23T02:04:12.620Z,84.77
2022-08-23T02:05:18.382Z,84.77
2022-08-23T02:06:12.591Z,84.67
2022-08-23T02:07:12.577Z,84.47
2022-08-23T02:08:12.563Z,84.88
2022-08-23T02:09:17.886Z,84.81
2022-08-23T02:10:13.546Z,84.77
2022-08-23T02:11:12.624Z,84.61
2022-08-23T02:12:12.525Z,85.08
2022-08-23T02:13:12.523Z,85.62
2022-08-23T02:14:13.438Z,85.62
2022-08-23T02:15:12.522Z,85.72
2022-08-23T02:16:15.446Z,86.22
2022-08-23T02:17:12.466Z,86.72
2022-08-23T02:18:13.466Z,86.22
2022-08-23T02:19:12.457Z,86.77
2022-08-23T02:20:12.459Z,85.72
2022-08-23T02:21:12.430Z,86.32
2022-08-23T02:22:12.938Z,86.22
2022-08-23T02:23:12.403Z,86.46
2022-08-23T02:24:12.388Z,86.97
2022-08-23T02:25:12.383Z,86.66
2022-08-23T02:26:12.468Z,86.97
2022-08-23T02:27:12.355Z,86.66
2022-08-23T02:28:12.345Z,87.07
2022-08-23T02:29:12.339Z,86.87
2022-08-23T02:30:12.332Z,87.37
2022-08-23T02:31:12.308Z,87.17
2022-08-23T02:32:12.471Z,87.37
2022-08-23T02:33:12.949Z,87.31
2022-08-23T02:34:14.944Z,87.21
2022-08-23T02:35:18.953Z,87.41
2022-08-23T02:36:12.304Z,87.92
2022-08-23T02:37:12.252Z,87.31
2022-08-23T02:38:12.257Z,87.21
2022-08-23T02:39:12.231Z,87.51
2022-08-23T02:40:12.618Z,87.21
2022-08-23T02:41:12.207Z,87.31
2022-08-23T02:42:12.944Z,87.71
2022-08-23T02:43:12.942Z,87.71
2022-08-23T02:44:13.228Z,87.71
2022-08-23T02:45:12.157Z,87.45
2022-08-23T02:46:12.150Z,88.02
2022-08-23T02:47:12.124Z,88.42
2022-08-23T02:48:12.153Z,88.42
2022-08-23T02:49:12.107Z,88.02
2022-08-23T02:50:12.134Z,88.06
2022-08-23T02:51:12.088Z,87.96
2022-08-23T02:52:12.089Z,87.76
2022-08-23T02:53:12.066Z,88.06
2022-08-23T02:54:12.060Z,88.66
2022-08-23T02:55:12.062Z,88.46
2022-08-23T02:56:17.084Z,88.56
2022-08-23T02:57:13.038Z,88.56
2022-08-23T02:58:12.019Z,88.16
2022-08-23T02:59:12.005Z,88.56
2022-08-23T03:00:12.000Z,88.76
2022-08-23T03:01:11.994Z,89.06
2022-08-23T03:02:12.057Z,89.06
2022-08-23T03:03:11.961Z,88.56
2022-08-23T03:04:11.945Z,88.46
2022-08-23T03:05:11.934Z,89.17
2022-08-23T03:06:24.651Z,88.76
2022-08-23T03:07:12.910Z,88.96
2022-08-23T03:08:14.456Z,89.17
2022-08-23T03:09:11.885Z,89.26
2022-08-23T03:10:11.932Z,89.57
2022-08-23T03:11:11.866Z,89.11
2022-08-23T03:12:12.446Z,89.11
2022-08-23T03:13:14.448Z,89.51
2022-08-23T03:14:18.463Z,89.51
2022-08-23T03:15:14.457Z,89.71
2022-08-23T03:16:11.982Z,89.41
2022-08-23T03:17:12.463Z,89.41
2022-08-23T03:18:11.808Z,89.31
2022-08-23T03:19:11.782Z,89.41
2022-08-23T03:20:11.782Z,89.01
2022-08-23T03:21:11.761Z,89.41
2022-08-23T03:22:11.765Z,89.11
2022-08-23T03:23:11.748Z,89.31
2022-08-23T03:24:11.984Z,90.01
2022-08-23T03:25:11.720Z,89.51
2022-08-23T03:26:11.711Z,89.01
2022-08-23T03:27:11.704Z,89.11
2022-08-23T03:28:11.692Z,89.65
2022-08-23T03:29:11.686Z,89.05
2022-08-23T03:30:19.162Z,88.81
2022-08-23T03:31:12.663Z,89.15
2022-08-23T03:32:11.671Z,89.65
2022-08-23T03:33:11.626Z,89.01
2022-08-23T03:34:11.630Z,88.81
2022-08-23T03:35:14.411Z,89.51
2022-08-23T03:36:12.463Z,89.71
2022-08-23T03:37:11.597Z,89.15
2022-08-23T03:38:11.982Z,89.15
2022-08-23T03:39:12.461Z,89.55
2022-08-23T03:40:11.659Z,89.45
2022-08-23T03:41:11.547Z,89.25
2022-08-23T03:42:12.459Z,89.25
2022-08-23T03:43:11.518Z,89.75
2022-08-23T03:44:11.527Z,89.86
2022-08-23T03:45:18.465Z,89.35
2022-08-23T03:46:18.459Z,89.25
2022-08-23T03:47:14.469Z,88.95
2022-08-23T03:48:14.458Z,89.25
2022-08-23T03:49:11.494Z,89.25
2022-08-23T03:50:11.457Z,89.35
2022-08-23T03:51:13.963Z,89.65
2022-08-23T03:52:11.969Z,89.75
2022-08-23T03:53:12.121Z,89.25
2022-08-23T03:54:11.422Z,89.35
2022-08-23T03:55:11.387Z,89.05
2022-08-23T03:56:11.424Z,89.50
2022-08-23T03:57:11.369Z,89.70
2022-08-23T03:58:11.367Z,89.39
2022-08-23T03:59:11.338Z,90.10
2022-08-23T04:00:11.361Z,90.30
2022-08-23T04:01:11.320Z,90.10
2022-08-23T04:02:11.396Z,90.00
2022-08-23T04:03:11.320Z,90.50
2022-08-23T04:04:11.965Z,90.10
2022-08-23T04:05:11.301Z,90.30
2022-08-23T04:06:11.288Z,90.10
2022-08-23T04:07:11.286Z,90.30
2022-08-23T04:08:11.246Z,90.30
2022-08-23T04:09:11.247Z,90.24
2022-08-23T04:10:11.240Z,89.84
2022-08-23T04:11:11.214Z,90.34
2022-08-23T04:12:17.552Z,90.04
2022-08-23T04:13:11.965Z,90.30
2022-08-23T04:14:11.202Z,90.14
2022-08-23T04:15:13.986Z,90.34
2022-08-23T04:16:17.970Z,89.64
2022-08-23T04:17:11.173Z,90.24
2022-08-23T04:18:11.154Z,90.34
2022-08-23T04:19:11.129Z,90.14
2022-08-23T04:20:11.125Z,90.45
2022-08-23T04:21:11.129Z,90.34
2022-08-23T04:22:11.096Z,90.55
2022-08-23T04:23:11.081Z,90.41
2022-08-23T04:24:11.071Z,90.20
2022-08-23T04:25:14.082Z,90.30
2022-08-23T04:26:12.492Z,90.41
2022-08-23T04:27:11.039Z,90.10
2022-08-23T04:28:11.032Z,90.00
2022-08-23T04:29:11.010Z,89.79
2022-08-23T04:30:11.999Z,90.10
2022-08-23T04:31:11.009Z,90.20
2022-08-23T04:32:12.108Z,90.00
2022-08-23T04:33:13.296Z,90.41
2022-08-23T04:34:11.984Z,90.30
2022-08-23T04:35:10.968Z,90.00
2022-08-23T04:36:10.956Z,89.90
2022-08-23T04:37:10.931Z,90.00
2022-08-23T04:38:24.752Z,89.90
2022-08-23T04:39:11.906Z,89.90
2022-08-23T04:40:11.010Z,89.59
2022-08-23T04:41:11.388Z,89.70
2022-08-23T04:42:14.680Z,89.09
2022-08-23T04:43:10.857Z,89.70
2022-08-23T04:44:10.856Z,89.19
2022-08-23T04:45:10.839Z,89.29
2022-08-23T04:46:10.857Z,89.19
2022-08-23T04:47:10.813Z,89.39
2022-08-23T04:48:12.006Z,89.79
2022-08-23T04:49:10.822Z,90.10
2022-08-23T04:50:10.789Z,90.10
2022-08-23T04:51:10.785Z,89.90
2022-08-23T04:52:18.614Z,90.10
2022-08-23T04:53:11.778Z,90.00
2022-08-23T04:54:10.743Z,90.61
2022-08-23T04:55:12.469Z,89.70
2022-08-23T04:56:10.715Z,90.26
2022-08-23T04:57:10.714Z,90.20
2022-08-23T04:58:10.715Z,90.20
2022-08-23T04:59:12.979Z,90.10
2022-08-23T05:00:10.688Z,90.10
2022-08-23T05:01:13.508Z,90.41
2022-08-23T05:02:11.700Z,90.41
2022-08-23T05:03:10.638Z,90.41
2022-08-23T05:04:10.651Z,90.10
2022-08-23T05:05:10.640Z,90.41
2022-08-23T05:06:10.624Z,90.00
2022-08-23T05:07:10.595Z,90.00
2022-08-23T05:08:10.598Z,90.41
2022-08-23T05:09:10.603Z,89.70
2022-08-23T05:10:10.594Z,88.99
2022-08-23T05:11:10.564Z,89.59
2022-08-23T05:12:13.467Z,89.70
2022-08-23T05:13:10.540Z,89.29
2022-08-23T05:14:10.527Z,89.09
2022-08-23T05:15:11.010Z,89.29
2022-08-23T05:16:13.487Z,89.19
2022-08-23T05:17:10.499Z,89.39
2022-08-23T05:18:10.486Z,89.19
2022-08-23T05:19:12.977Z,89.59
2022-08-23T05:20:12.974Z,89.09
2022-08-23T05:21:10.467Z,87.98
2022-08-23T05:22:10.442Z,88.85
2022-08-23T05:23:10.427Z,89.15
2022-08-23T05:24:13.829Z,89.15
2022-08-23T05:25:10.972Z,89.05
2022-08-23T05:26:10.402Z,89.05
2022-08-23T05:27:13.483Z,89.55
2022-08-23T05:28:12.973Z,89.15
2022-08-23T05:29:10.372Z,89.86
2022-08-23T05:30:15.114Z,90.06
2022-08-23T05:31:11.903Z,89.95
2022-08-23T05:32:10.349Z,89.95
2022-08-23T05:33:10.311Z,89.86
2022-08-23T05:34:10.514Z,89.86
2022-08-23T05:35:10.299Z,90.26
2022-08-23T05:36:10.287Z,90.06
2022-08-23T05:37:10.279Z,89.45
2022-08-23T05:38:10.270Z,89.15
2022-08-23T05:39:10.505Z,88.95
2022-08-23T05:40:10.622Z,89.41
2022-08-23T05:41:10.988Z,89.11
2022-08-23T05:42:10.215Z,89.01
2022-08-23T05:43:10.212Z,88.81
2022-08-23T05:44:12.977Z,88.70
2022-08-23T05:45:10.195Z,88.00
2022-08-23T05:46:13.473Z,89.11
2022-08-23T05:47:11.598Z,88.60
2022-08-23T05:48:10.152Z,88.20
2022-08-23T05:49:12.978Z,87.80
2022-08-23T05:50:15.492Z,87.65
2022-08-23T05:51:10.124Z,88.10
2022-08-23T05:52:12.981Z,87.96
2022-08-23T05:53:10.123Z,88.36
2022-08-23T05:54:10.978Z,87.85
2022-08-23T05:55:10.082Z,88.12
2022-08-23T05:56:10.508Z,88.36
2022-08-23T05:57:11.008Z,87.76
2022-08-23T05:58:10.037Z,87.76
2022-08-23T05:59:12.454Z,86.81
2022-08-23T06:00:12.999Z,87.21
2022-08-23T06:01:10.044Z,86.81
2022-08-23T06:02:10.001Z,87.01
2022-08-23T06:03:10.004Z,87.41
2022-08-23T06:04:24.480Z,87.51
2022-08-23T06:05:12.484Z,86.87
2022-08-23T06:06:09.963Z,87.47
2022-08-23T06:07:10.008Z,86.46
2022-08-23T06:08:09.965Z,85.66
2022-08-23T06:09:16.473Z,85.66
2022-08-23T06:10:16.201Z,86.46
2022-08-23T06:11:09.896Z,85.86
2022-08-23T06:12:09.897Z,84.71
2022-08-23T06:13:09.880Z,85.22
2022-08-23T06:14:09.944Z,84.91
2022-08-23T06:15:09.885Z,84.61
2022-08-23T06:16:14.336Z,82.70
2022-08-23T06:17:10.836Z,82.80
2022-08-23T06:18:16.485Z,82.30
2022-08-23T06:19:10.009Z,82.36
2022-08-23T06:20:09.869Z,82.16
2022-08-23T06:21:12.485Z,81.46
2022-08-23T06:22:12.482Z,82.26
2022-08-23T06:23:11.219Z,81.15
2022-08-23T06:24:12.489Z,80.91
2022-08-23T06:25:10.057Z,81.41
2022-08-23T06:26:09.753Z,80.71
2022-08-23T06:27:09.760Z,80.21
2022-08-23T06:28:10.506Z,79.71
2022-08-23T06:29:09.819Z,80.01
2022-08-23T06:30:11.934Z,81.32
2022-08-23T06:31:09.748Z,80.31
2022-08-23T06:32:09.755Z,80.11
2022-08-23T06:33:10.500Z,81.12
2022-08-23T06:34:09.788Z,80.41
2022-08-23T06:35:29.252Z,80.11
2022-08-23T06:36:13.481Z,80.37
2022-08-23T06:37:09.653Z,79.47
2022-08-23T06:38:09.610Z,79.27
2022-08-23T06:39:09.606Z,79.47
2022-08-23T06:40:09.651Z,80.27
2022-08-23T06:41:09.566Z,78.97
2022-08-23T06:42:36.592Z,79.23
2022-08-23T06:43:10.558Z,79.63
2022-08-23T06:44:10.509Z,79.53
2022-08-23T06:45:10.484Z,79.93
2022-08-23T06:46:12.502Z,79.33
2022-08-23T06:47:09.533Z,78.63
2022-08-23T06:48:09.535Z,78.03
2022-08-23T06:49:09.995Z,78.79
2022-08-23T06:50:09.992Z,78.59
2022-08-23T06:51:09.463Z,78.79
2022-08-23T06:52:09.454Z,78.19
2022-08-23T06:53:10.062Z,77.89
2022-08-23T06:54:09.428Z,78.99
2022-08-23T06:55:13.628Z,78.79
2022-08-23T06:56:09.994Z,78.09
2022-08-23T06:57:09.398Z,77.59
2022-08-23T06:58:15.989Z,78.49
2022-08-23T06:59:09.396Z,78.15
2022-08-23T07:00:09.525Z,78.05
2022-08-23T07:01:23.276Z,76.04
2022-08-23T07:02:10.422Z,76.85
2022-08-23T07:03:09.432Z,76.45
2022-08-23T07:04:09.321Z,76.25
2022-08-23T07:05:09.339Z,76.31
2022-08-23T07:06:09.512Z,76.81
2022-08-23T07:07:11.542Z,76.11
2022-08-23T07:08:09.995Z,77.01
2022-08-23T07:09:09.265Z,76.61
2022-08-23T07:10:09.522Z,76.01
2022-08-23T07:11:09.251Z,75.91
2022-08-23T07:12:09.245Z,75.41
2022-08-23T07:13:09.216Z,75.71
2022-08-23T07:14:11.996Z,74.77
2022-08-23T07:15:15.983Z,75.17
2022-08-23T07:16:09.248Z,75.67
2022-08-23T07:17:09.212Z,74.67
2022-08-23T07:18:13.483Z,74.77
2022-08-23T07:19:09.211Z,74.87
2022-08-23T07:20:11.998Z,75.17
2022-08-23T07:21:09.146Z,75.07
2022-08-23T07:22:09.133Z,74.57
2022-08-23T07:23:09.135Z,75.23
2022-08-23T07:24:09.109Z,74.93
2022-08-23T07:25:09.991Z,74.84
2022-08-23T07:26:09.087Z,74.73
2022-08-23T07:27:09.053Z,75.23
2022-08-23T07:28:11.688Z,75.13
2022-08-23T07:29:09.522Z,75.74
2022-08-23T07:30:09.047Z,75.13
2022-08-23T07:31:14.744Z,74.33
2022-08-23T07:32:10.128Z,75.13
2022-08-23T07:33:10.059Z,76.04
2022-08-23T07:34:08.993Z,75.60
2022-08-23T07:35:08.984Z,74.80
2022-08-23T07:36:09.493Z,74.20
2022-08-23T07:37:15.448Z,74.30
2022-08-23T07:38:09.967Z,74.60
2022-08-23T07:39:09.500Z,74.30
2022-08-23T07:40:09.505Z,74.60
2022-08-23T07:41:09.921Z,74.50
2022-08-23T07:42:22.910Z,74.26
2022-08-23T07:43:24.493Z,74.16
2022-08-23T07:44:08.912Z,73.16
2022-08-23T07:45:10.015Z,73.96
2022-08-23T07:46:09.515Z,74.76
2022-08-23T07:47:08.869Z,72.76
2022-08-23T07:48:23.527Z,72.66
2022-08-23T07:49:09.824Z,72.72
2022-08-23T07:50:09.509Z,71.96
2022-08-23T07:51:08.824Z,72.42
2022-08-23T07:52:08.787Z,71.03
2022-08-23T07:53:09.512Z,70.92
2022-08-23T07:54:08.801Z,69.23
2022-08-23T07:55:08.778Z,69.69
2022-08-23T07:56:08.747Z,69.99
2022-08-23T07:57:09.503Z,68.29
2022-08-23T07:58:08.725Z,68.69
2022-08-23T07:59:34.558Z,67.99
2022-08-23T08:00:15.502Z,67.79
2022-08-23T08:01:08.696Z,68.79
2022-08-23T08:02:09.827Z,68.19
2022-08-23T08:03:09.156Z,67.56
2022-08-23T08:04:09.034Z,67.26
2022-08-23T08:05:08.686Z,69.16
2022-08-23T08:06:08.644Z,68.36
2022-08-23T08:07:19.220Z,68.26
2022-08-23T08:08:09.617Z,68.86
2022-08-23T08:09:08.606Z,66.86
2022-08-23T08:10:08.624Z,66.46
2022-08-23T08:11:09.501Z,67.63
2022-08-23T08:12:08.580Z,66.96
2022-08-23T08:13:08.564Z,67.23
2022-08-23T08:14:09.032Z,66.53
2022-08-23T08:15:09.036Z,66.73
2022-08-23T08:16:11.599Z,66.93
2022-08-23T08:17:08.517Z,66.83
2022-08-23T08:18:08.515Z,67.13
2022-08-23T08:19:08.500Z,67.60
2022-08-23T08:20:08.496Z,67.43
2022-08-23T08:21:08.497Z,67.43
2022-08-23T08:22:08.465Z,65.43
2022-08-23T08:23:11.000Z,65.83
2022-08-23T08:24:08.453Z,65.80
2022-08-23T08:25:08.449Z,67.49
2022-08-23T08:26:08.426Z,67.30
2022-08-23T08:27:08.420Z,65.80
2022-08-23T08:28:11.585Z,67.40
2022-08-23T08:29:10.507Z,67.30
2022-08-23T08:30:08.549Z,67.66
2022-08-23T08:31:08.426Z,65.37
2022-08-23T08:32:08.386Z,64.80
2022-08-23T08:33:09.366Z,64.87
2022-08-23T08:34:08.332Z,65.87
2022-08-23T08:35:08.366Z,65.07
2022-08-23T08:36:08.537Z,66.27
2022-08-23T08:37:08.309Z,64.87
2022-08-23T08:38:09.006Z,66.27
2022-08-23T08:39:08.280Z,67.16
2022-08-23T08:40:08.296Z,65.77
2022-08-23T08:41:08.532Z,65.47
2022-08-23T08:42:08.249Z,65.37
2022-08-23T08:43:09.004Z,65.07
2022-08-23T08:44:08.227Z,64.27
2022-08-23T08:45:08.234Z,65.37
2022-08-23T08:46:08.245Z,65.77
2022-08-23T08:47:08.202Z,65.83
2022-08-23T08:48:12.704Z,66.24
2022-08-23T08:49:09.257Z,66.13
2022-08-23T08:50:08.162Z,65.64
2022-08-23T08:51:08.541Z,65.53
2022-08-23T08:52:08.163Z,64.94
2022-08-23T08:53:08.127Z,65.04
2022-08-23T08:54:08.148Z,66.93
2022-08-23T08:55:08.104Z,64.71
2022-08-23T08:56:11.015Z,67.40
2022-08-23T08:57:10.014Z,66.40
2022-08-23T08:58:08.104Z,65.61
2022-08-23T08:59:08.065Z,65.20
2022-08-23T09:00:08.061Z,65.50
2022-08-23T09:01:08.041Z,65.37
2022-08-23T09:02:16.933Z,65.70
2022-08-23T09:03:09.077Z,65.11
2022-08-23T09:04:08.011Z,64.01
2022-08-23T09:05:07.995Z,65.41
2022-08-23T09:06:07.987Z,65.31
2022-08-23T09:07:07.977Z,63.01
2022-08-23T09:08:08.050Z,63.11
2022-08-23T09:09:07.983Z,62.88
2022-08-23T09:10:07.952Z,63.08
2022-08-23T09:11:14.545Z,62.88
2022-08-23T09:12:07.923Z,64.07
2022-08-23T09:13:08.542Z,64.45
2022-08-23T09:14:07.898Z,65.74
2022-08-23T09:15:07.918Z,64.54
2022-08-23T09:16:07.938Z,65.64
2022-08-23T09:17:08.507Z,64.45
2022-08-23T09:18:07.852Z,62.55
2022-08-23T09:19:08.524Z,63.05
2022-08-23T09:20:07.864Z,64.45
2022-08-23T09:21:07.833Z,64.64
2022-08-23T09:22:07.813Z,63.02
2022-08-23T09:23:07.801Z,63.22
2022-08-23T09:24:07.786Z,63.19
2022-08-23T09:25:10.221Z,62.89
2022-08-23T09:26:07.766Z,63.98
2022-08-23T09:27:07.765Z,64.09
2022-08-23T09:28:08.524Z,63.49
2022-08-23T09:29:07.751Z,62.89
2022-08-23T09:30:07.756Z,62.76
2022-08-23T09:31:08.834Z,61.77
2022-08-23T09:32:08.520Z,61.77
2022-08-23T09:33:08.696Z,61.96
2022-08-23T09:34:07.687Z,60.08
2022-08-23T09:35:07.691Z,60.08
2022-08-23T09:36:08.422Z,60.74
2022-08-23T09:37:10.521Z,60.74
2022-08-23T09:38:11.355Z,60.25
2022-08-23T09:39:07.674Z,60.22
2022-08-23T09:40:07.659Z,61.01
2022-08-23T09:41:07.633Z,60.61
2022-08-23T09:42:07.596Z,60.31
2022-08-23T09:43:07.589Z,60.82
2022-08-23T09:44:08.516Z,61.21
2022-08-23T09:45:07.587Z,62.87
2022-08-23T09:46:14.569Z,61.68
2022-08-23T09:47:08.057Z,62.07
2022-08-23T09:48:07.534Z,60.88
2022-08-23T09:49:10.525Z,60.69
2022-08-23T09:50:07.529Z,59.76
2022-08-23T09:51:07.528Z,60.06
2022-08-23T09:52:07.484Z,60.03
2022-08-23T09:53:07.510Z,60.53
2022-08-23T09:54:07.468Z,60.03
2022-08-23T09:55:14.026Z,60.53
2022-08-23T09:56:07.449Z,60.03
2022-08-23T09:57:07.462Z,59.83
2022-08-23T09:58:07.558Z,60.33
2022-08-23T09:59:08.024Z,58.04
2022-08-23T10:00:07.501Z,56.13
2022-08-23T10:01:07.438Z,55.64
2022-08-23T10:02:07.455Z,55.94
2022-08-23T10:03:07.660Z,56.21
2022-08-23T10:04:07.560Z,59.28
2022-08-23T10:05:07.981Z,57.40
2022-08-23T10:06:09.022Z,57.50
2022-08-23T10:07:07.332Z,57.10
2022-08-23T10:08:14.009Z,59.78
2022-08-23T10:09:07.324Z,57.40
2022-08-23T10:10:07.291Z,58.46
2022-08-23T10:11:08.017Z,57.17
2022-08-23T10:12:07.575Z,55.49
2022-08-23T10:13:08.033Z,58.26
2022-08-23T10:14:08.026Z,59.05
2022-08-23T10:15:08.549Z,58.23
2022-08-23T10:16:08.069Z,56.15
2022-08-23T10:17:07.212Z,54.99
2022-08-23T10:18:07.201Z,55.98
2022-08-23T10:19:07.192Z,57.27
2022-08-23T10:20:07.194Z,55.29
2022-08-23T10:21:07.179Z,55.06
2022-08-23T10:22:10.029Z,57.54
2022-08-23T10:23:07.155Z,53.88
2022-08-23T10:24:09.062Z,53.38
2022-08-23T10:25:08.032Z,55.16
2022-08-23T10:26:07.110Z,54.37
2022-08-23T10:27:08.030Z,55.36
2022-08-23T10:28:07.096Z,55.09
2022-08-23T10:29:07.090Z,55.98
2022-08-23T10:30:07.090Z,58.23
2022-08-23T10:31:07.635Z,55.46
2022-08-23T10:32:07.074Z,55.04
2022-08-23T10:33:08.081Z,56.02
2022-08-23T10:34:09.527Z,57.21
2022-08-23T10:35:07.018Z,53.53
2022-08-23T10:36:07.019Z,53.60
2022-08-23T10:37:07.028Z,54.88
2022-08-23T10:38:09.530Z,53.38
2022-08-23T10:39:06.990Z,56.24
2022-08-23T10:40:09.546Z,55.15
2022-08-23T10:41:07.535Z,53.35
2022-08-23T10:42:09.535Z,52.17
2022-08-23T10:43:06.952Z,52.36
2022-08-23T10:44:06.927Z,52.66
2022-08-23T10:45:06.914Z,51.50
2022-08-23T10:46:07.647Z,53.08
2022-08-23T10:47:07.535Z,55.33
2022-08-23T10:48:06.920Z,55.22
2022-08-23T10:49:06.869Z,55.20
2022-08-23T10:50:06.854Z,53.25
2022-08-23T10:51:06.853Z,56.12
2022-08-23T10:52:06.835Z,53.25
2022-08-23T10:53:07.545Z,57.10
2022-08-23T10:54:06.836Z,55.35
2022-08-23T10:55:06.809Z,55.35
2022-08-23T10:56:13.540Z,53.80
2022-08-23T10:57:06.784Z,55.38
2022-08-23T10:58:06.769Z,54.71
2022-08-23T10:59:06.779Z,56.62
2022-08-23T11:00:07.532Z,57.31
2022-08-23T11:01:06.783Z,55.63
2022-08-23T11:02:09.598Z,55.43
2022-08-23T11:03:06.723Z,56.79
2022-08-23T11:04:06.739Z,57.35
2022-08-23T11:05:07.754Z,56.57
2022-08-23T11:06:07.548Z,55.28
2022-08-23T11:07:06.673Z,55.18
2022-08-23T11:08:06.677Z,56.84
2022-08-23T11:09:09.540Z,54.76
2022-08-23T11:10:06.677Z,53.38
2022-08-23T11:11:07.632Z,53.25
2022-08-23T11:12:11.079Z,53.33
2022-08-23T11:13:06.627Z,53.33
2022-08-23T11:14:06.603Z,55.37
2022-08-23T11:15:06.612Z,53.50
2022-08-23T11:16:06.612Z,51.82
2022-08-23T11:17:06.565Z,51.10
2022-08-23T11:18:06.562Z,51.99
2022-08-23T11:19:09.545Z,53.47
2022-08-23T11:20:27.567Z,50.61
2022-08-23T11:21:06.532Z,50.12
2022-08-23T11:22:07.531Z,50.81
2022-08-23T11:23:06.504Z,49.45
2022-08-23T11:24:06.519Z,50.43
2022-08-23T11:25:06.505Z,52.78
2022-08-23T11:26:06.480Z,51.10
2022-08-23T11:27:07.229Z,52.19
2022-08-23T11:28:07.048Z,51.77
2022-08-23T11:29:06.439Z,50.90
2022-08-23T11:30:06.438Z,51.97
2022-08-23T11:31:06.452Z,52.06
2022-08-23T11:32:06.450Z,54.13
2022-08-23T11:33:07.040Z,52.75
2022-08-23T11:34:06.593Z,52.56
2022-08-23T11:35:09.060Z,50.68
2022-08-23T11:36:07.048Z,51.97
2022-08-23T11:37:06.359Z,52.06
2022-08-23T11:38:08.086Z,52.56
2022-08-23T11:39:13.043Z,51.57
2022-08-23T11:40:07.399Z,52.04
2022-08-23T11:41:13.048Z,50.66
2022-08-23T11:42:07.052Z,50.93
2022-08-23T11:43:06.312Z,53.09
2022-08-23T11:44:06.592Z,51.15
2022-08-23T11:45:06.267Z,51.74
2022-08-23T11:46:21.065Z,52.83
2022-08-23T11:47:06.581Z,51.32
2022-08-23T11:48:09.059Z,50.34
2022-08-23T11:49:06.245Z,52.28
2022-08-23T11:50:06.589Z,49.43
2022-08-23T11:51:06.222Z,48.83
2022-08-23T11:52:07.052Z,48.37
2022-08-23T11:53:06.184Z,49.16
2022-08-23T11:54:07.059Z,50.90
2022-08-23T11:55:09.581Z,52.40
2022-08-23T11:56:07.050Z,49.45
2022-08-23T11:57:06.140Z,51.74
2022-08-23T11:58:07.065Z,52.11
2022-08-23T11:59:08.677Z,53.47
2022-08-23T12:00:07.096Z,53.07
2022-08-23T12:01:06.100Z,48.74
2022-08-23T12:02:07.101Z,51.50
2022-08-23T12:03:09.155Z,51.86
2022-08-23T12:04:07.235Z,50.78
2022-08-23T12:05:06.496Z,47.80
2022-08-23T12:06:12.645Z,49.18
2022-08-23T12:07:06.554Z,50.34
2022-08-23T12:08:06.030Z,51.79
2022-08-23T12:09:06.556Z,49.92
2022-08-23T12:10:06.006Z,49.23
2022-08-23T12:11:16.588Z,49.65
2022-08-23T12:12:06.726Z,49.26
2022-08-23T12:13:06.573Z,49.28
2022-08-23T12:14:06.003Z,49.18
2022-08-23T12:15:06.639Z,51.03
2022-08-23T12:16:06.078Z,50.21
2022-08-23T12:17:06.575Z,47.54
2022-08-23T12:18:05.920Z,49.58
2022-08-23T12:19:06.602Z,48.30
2022-08-23T12:20:16.527Z,49.48
2022-08-23T12:21:09.556Z,47.91
2022-08-23T12:22:06.565Z,47.15
2022-08-23T12:23:06.654Z,48.01
2022-08-23T12:24:06.576Z,46.93
2022-08-23T12:25:05.875Z,45.09
2022-08-23T12:26:06.556Z,45.06
2022-08-23T12:27:06.558Z,44.79
2022-08-23T12:28:05.842Z,45.97
2022-08-23T12:29:06.561Z,46.14
2022-08-23T12:30:05.812Z,45.75
2022-08-23T12:31:07.856Z,46.61
2022-08-23T12:32:06.566Z,48.18
2022-08-23T12:33:06.562Z,48.28
2022-08-23T12:34:07.609Z,45.70
2022-08-23T12:35:06.561Z,44.45
2022-08-23T12:36:15.453Z,44.65
2022-08-23T12:37:09.467Z,48.74
2022-08-23T12:38:06.593Z,47.47
2022-08-23T12:39:06.571Z,47.08
2022-08-23T12:40:06.607Z,44.84
2022-08-23T12:41:05.691Z,46.61
2022-08-23T12:42:20.571Z,46.31
2022-08-23T12:43:05.658Z,46.31
2022-08-23T12:44:06.600Z,44.53
2022-08-23T12:45:05.641Z,45.80
2022-08-23T12:46:06.854Z,44.70
2022-08-23T12:47:05.606Z,45.47
2022-08-23T12:48:06.571Z,46.94
2022-08-23T12:49:06.570Z,44.56
2022-08-23T12:50:06.702Z,43.27
2022-08-23T12:51:05.572Z,42.88
2022-08-23T12:52:08.068Z,43.17